createdAt,value
2023-12-09T00:00:24.701Z,99404.34
2023-12-09T00:02:51.403Z,99408.66
2023-12-09T00:05:17.982Z,99401.78
2023-12-09T00:07:44.584Z,99392.81
2023-12-09T00:10:11.214Z,99380.56
2023-12-09T00:12:37.834Z,99380.41
2023-12-09T00:15:04.879Z,99373.03
2023-12-09T00:17:31.520Z,99354.34
2023-12-09T00:19:58.151Z,99334.78
2023-12-09T00:22:25.074Z,99334.78
2023-12-09T00:24:51.839Z,99318.94
2023-12-09T00:27:18.470Z,99315.19
2023-12-09T00:29:45.094Z,99308.06
2023-12-09T00:32:11.931Z,99308.28
2023-12-09T00:34:38.501Z,99287.16
2023-12-09T00:37:05.123Z,99264.44
2023-12-09T00:39:31.779Z,99257.31
2023-12-09T00:41:58.425Z,99239.53
2023-12-09T00:44:24.986Z,99231.16
2023-12-09T00:46:51.574Z,99210.75
2023-12-09T00:49:18.363Z,99187.66
2023-12-09T00:51:45.041Z,99202.63
2023-12-09T00:54:11.665Z,99187.59
2023-12-09T00:56:38.292Z,99186.56
2023-12-09T00:59:04.957Z,99175.69
2023-12-09T01:01:31.742Z,99164.97
2023-12-09T01:03:58.621Z,99140.84
2023-12-09T01:06:25.586Z,99154.66
2023-12-09T01:08:52.286Z,99137.25
2023-12-09T01:11:18.931Z,99126.63
2023-12-09T01:13:45.529Z,99126.91
2023-12-09T01:16:12.299Z,99108.19
2023-12-09T01:18:39.177Z,99111.03
2023-12-09T01:21:06.222Z,99098.16
2023-12-09T01:23:32.866Z,99080.47
2023-12-09T01:25:59.462Z,99055.91
2023-12-09T01:28:26.035Z,99055.38
2023-12-09T01:30:52.617Z,99043.78
2023-12-09T01:33:19.354Z,99027.88
2023-12-09T01:35:46.027Z,99038.50
2023-12-09T01:38:12.617Z,99014.72
2023-12-09T01:40:39.166Z,99004.47
2023-12-09T01:43:09.627Z,98994.94
2023-12-09T01:45:36.264Z,98993.09
2023-12-09T01:48:04.699Z,98980.97
2023-12-09T01:50:31.660Z,98995.53
2023-12-09T01:52:59.229Z,98990.00
2023-12-09T01:55:26.040Z,98961.47
2023-12-09T01:57:53.959Z,98947.50
2023-12-09T02:00:22.295Z,98930.84
2023-12-09T02:02:49.469Z,98927.19
2023-12-09T02:05:16.392Z,98923.44
2023-12-09T02:07:43.083Z,98899.19
2023-12-09T02:10:09.905Z,98881.16
2023-12-09T02:12:46.968Z,98895.75
2023-12-09T02:15:25.361Z,98885.72
2023-12-09T02:17:58.464Z,98877.78
2023-12-09T02:20:25.819Z,98848.75
2023-12-09T02:23:08.472Z,98852.19
2023-12-09T02:25:36.690Z,98846.41
2023-12-09T02:28:13.339Z,98832.41
2023-12-09T02:30:50.349Z,98824.22
2023-12-09T02:33:18.965Z,98817.38
2023-12-09T02:35:48.638Z,98786.47
2023-12-09T02:38:17.286Z,98772.44
2023-12-09T02:40:44.767Z,98761.38
2023-12-09T02:43:11.552Z,98744.94
2023-12-09T02:45:38.424Z,98741.81
2023-12-09T02:48:05.530Z,98736.00
2023-12-09T02:50:32.283Z,98714.88
2023-12-09T02:52:58.984Z,98687.34
2023-12-09T02:55:25.534Z,98691.06
2023-12-09T02:57:52.124Z,98673.09
2023-12-09T03:00:18.868Z,98672.53
2023-12-09T03:02:45.537Z,98658.53
2023-12-09T03:05:12.296Z,98647.34
2023-12-09T03:07:38.927Z,98649.25
2023-12-09T03:10:05.800Z,98648.16
2023-12-09T03:12:32.494Z,98645.75
2023-12-09T03:14:59.153Z,98641.22
2023-12-09T03:17:25.853Z,98640.69
2023-12-09T03:19:52.554Z,98621.34
2023-12-09T03:22:19.345Z,98586.09
2023-12-09T03:24:45.939Z,98586.38
2023-12-09T03:27:12.554Z,98591.66
2023-12-09T03:29:39.130Z,98591.31
2023-12-09T03:32:05.909Z,98580.69
2023-12-09T03:34:32.646Z,98552.13
2023-12-09T03:36:59.453Z,98571.09
2023-12-09T03:39:26.155Z,98550.16
2023-12-09T03:41:52.873Z,98555.19
2023-12-09T03:44:19.523Z,98553.53
2023-12-09T03:46:46.168Z,98552.69
2023-12-09T03:49:13.010Z,98516.47
2023-12-09T03:51:39.815Z,98543.38
2023-12-09T03:54:06.500Z,98530.34
2023-12-09T03:56:33.289Z,98530.59
2023-12-09T03:59:00.003Z,98517.41
2023-12-09T04:01:26.700Z,98521.00
2023-12-09T04:03:53.460Z,98503.78
2023-12-09T04:06:20.148Z,98501.91
2023-12-09T04:08:46.867Z,98511.22
2023-12-09T04:11:13.421Z,98484.19
2023-12-09T04:13:41.543Z,98489.72
2023-12-09T04:16:08.589Z,98482.28
2023-12-09T04:18:35.476Z,98479.59
2023-12-09T04:21:02.191Z,98467.75
2023-12-09T04:23:28.851Z,98475.59
2023-12-09T04:25:55.488Z,98469.75
2023-12-09T04:28:22.100Z,98450.47
2023-12-09T04:30:48.732Z,98486.94
2023-12-09T04:33:15.398Z,98468.66
2023-12-09T04:35:42.070Z,98478.72
2023-12-09T04:38:08.652Z,98448.81
2023-12-09T04:40:35.277Z,98442.13
2023-12-09T04:43:01.872Z,98431.94
2023-12-09T04:45:28.504Z,98444.50
2023-12-09T04:47:55.418Z,98438.22
2023-12-09T04:50:22.177Z,98439.72
2023-12-09T04:52:48.773Z,98437.94
2023-12-09T04:55:15.564Z,98426.00
2023-12-09T04:57:42.250Z,98453.50
2023-12-09T05:00:09.400Z,98452.91
2023-12-09T05:02:36.035Z,98431.25
2023-12-09T05:05:02.645Z,98439.16
2023-12-09T05:07:29.321Z,98425.16
2023-12-09T05:09:56.101Z,98433.91
2023-12-09T05:12:22.872Z,98436.25
2023-12-09T05:14:49.565Z,98444.97
2023-12-09T05:17:16.856Z,98440.19
2023-12-09T05:19:43.503Z,98412.19
2023-12-09T05:22:10.194Z,98435.16
2023-12-09T05:24:36.822Z,98432.78
2023-12-09T05:27:03.644Z,98437.25
2023-12-09T05:29:30.302Z,98429.88
2023-12-09T05:31:56.966Z,98420.53
2023-12-09T05:34:23.671Z,98436.72
2023-12-09T05:36:50.307Z,98421.69
2023-12-09T05:39:16.933Z,98422.19
2023-12-09T05:41:43.616Z,98433.25
2023-12-09T05:44:10.221Z,98435.91
2023-12-09T05:46:36.890Z,98435.09
2023-12-09T05:49:04.250Z,98408.66
2023-12-09T05:51:31.185Z,98420.66
2023-12-09T05:53:57.959Z,98417.75
2023-12-09T05:56:24.676Z,98411.63
2023-12-09T05:58:51.247Z,98433.78
2023-12-09T06:01:17.934Z,98429.28
2023-12-09T06:03:44.657Z,98451.00
2023-12-09T06:06:11.620Z,98429.84
2023-12-09T06:08:38.321Z,98441.97
2023-12-09T06:11:05.046Z,98427.53
2023-12-09T06:13:32.403Z,98433.28
2023-12-09T06:15:59.078Z,98435.19
2023-12-09T06:18:26.367Z,98447.34
2023-12-09T06:20:52.953Z,98453.72
2023-12-09T06:23:19.552Z,98451.28
2023-12-09T06:25:46.214Z,98436.50
2023-12-09T06:28:12.897Z,98430.19
2023-12-09T06:30:39.571Z,98444.91
2023-12-09T06:33:06.484Z,98432.53
2023-12-09T06:35:33.202Z,98453.44
2023-12-09T06:37:59.816Z,98440.22
2023-12-09T06:40:26.364Z,98447.66
2023-12-09T06:42:52.975Z,98454.81
2023-12-09T06:45:19.756Z,98466.13
2023-12-09T06:47:46.518Z,98459.50
2023-12-09T06:50:13.168Z,98465.59
2023-12-09T06:52:39.910Z,98460.88
2023-12-09T06:55:06.914Z,98467.22
2023-12-09T06:57:33.588Z,98454.06
2023-12-09T07:00:00.242Z,98478.66
2023-12-09T07:02:33.923Z,98475.41
2023-12-09T07:05:07.152Z,98458.31
2023-12-09T07:07:33.840Z,98463.06
2023-12-09T07:10:00.480Z,98462.34
2023-12-09T07:12:27.223Z,98474.41
2023-12-09T07:14:54.005Z,98458.63
2023-12-09T07:17:20.609Z,98458.91
2023-12-09T07:19:47.372Z,98467.06
2023-12-09T07:22:14.099Z,98489.53
2023-12-09T07:24:40.898Z,98481.41
2023-12-09T07:27:07.677Z,98491.38
2023-12-09T07:29:34.247Z,98499.34
2023-12-09T07:32:01.037Z,98495.91
2023-12-09T07:34:28.060Z,98499.34
2023-12-09T07:36:54.728Z,98501.22
2023-12-09T07:39:21.405Z,98489.56
2023-12-09T07:41:47.992Z,98498.03
2023-12-09T07:44:14.606Z,98480.16
2023-12-09T07:46:41.186Z,98483.84
2023-12-09T07:49:07.899Z,98505.88
2023-12-09T07:51:34.776Z,98485.22
2023-12-09T07:54:01.565Z,98514.28
2023-12-09T07:56:28.202Z,98522.47
2023-12-09T07:58:54.816Z,98505.59
2023-12-09T08:01:21.463Z,98516.13
2023-12-09T08:03:48.161Z,98509.31
2023-12-09T08:06:14.932Z,98500.03
2023-12-09T08:08:41.704Z,98523.84
2023-12-09T08:11:08.372Z,98538.63
2023-12-09T08:13:35.039Z,98519.63
2023-12-09T08:16:01.628Z,98533.66
2023-12-09T08:18:28.490Z,98529.41
2023-12-09T08:20:55.211Z,98512.00
2023-12-09T08:23:21.826Z,98507.56
2023-12-09T08:25:48.573Z,98512.50
2023-12-09T08:28:15.210Z,98520.50
2023-12-09T08:30:41.873Z,98543.22
2023-12-09T08:33:08.682Z,98521.34
2023-12-09T08:35:36.120Z,98517.31
2023-12-09T08:38:03.409Z,98526.78
2023-12-09T08:40:30.039Z,98519.69
2023-12-09T08:42:56.680Z,98535.81
2023-12-09T08:45:23.362Z,98534.28
2023-12-09T08:47:50.093Z,98521.00
2023-12-09T08:52:46.325Z,98533.25
2023-12-09T08:55:12.972Z,98521.06
2023-12-09T08:57:39.688Z,98535.81
2023-12-09T09:00:06.892Z,98525.56
2023-12-09T09:02:33.470Z,98548.56
2023-12-09T09:05:00.173Z,98529.28
2023-12-09T09:07:26.877Z,98540.13
2023-12-09T09:09:53.525Z,98521.56
2023-12-09T09:12:20.284Z,98518.97
2023-12-09T09:14:47.060Z,98527.66
2023-12-09T09:17:13.711Z,98517.56
2023-12-09T09:19:40.339Z,98519.16
2023-12-09T09:22:06.943Z,98518.69
2023-12-09T09:24:33.649Z,98532.69
2023-12-09T09:27:00.338Z,98525.31
2023-12-09T09:29:26.982Z,98525.03
2023-12-09T09:31:53.659Z,98548.56
2023-12-09T09:34:20.542Z,98556.00
2023-12-09T09:36:47.280Z,98560.22
2023-12-09T09:39:14.062Z,98563.41
2023-12-09T09:42:03.446Z,98576.44
2023-12-09T09:44:31.971Z,98570.09
2023-12-09T09:46:58.673Z,98551.06
2023-12-09T09:49:25.916Z,98564.53
2023-12-09T09:51:57.468Z,98569.31
2023-12-09T09:54:32.084Z,98573.06
2023-12-09T09:56:59.351Z,98588.88
2023-12-09T09:59:27.009Z,98603.97
2023-12-09T10:01:53.744Z,98588.34
2023-12-09T10:04:20.400Z,98599.97
2023-12-09T10:06:48.758Z,98584.88
2023-12-09T10:09:15.648Z,98573.53
2023-12-09T10:11:42.273Z,98601.81
2023-12-09T10:14:09.067Z,98596.56
2023-12-09T10:16:36.539Z,98603.09
2023-12-09T10:19:03.382Z,98588.88
2023-12-09T10:21:30.298Z,98612.06
2023-12-09T10:23:57.106Z,98612.19
2023-12-09T10:26:23.795Z,98624.00
2023-12-09T10:28:51.040Z,98619.53
2023-12-09T10:31:17.861Z,98629.88
2023-12-09T10:33:45.296Z,98622.22
2023-12-09T10:36:12.136Z,98630.44
2023-12-09T10:38:43.097Z,98628.34
2023-12-09T10:41:12.963Z,98633.59
2023-12-09T10:43:41.231Z,98633.38
2023-12-09T10:46:09.331Z,98636.31
2023-12-09T10:48:36.095Z,98634.94
2023-12-09T10:51:02.985Z,98632.78
2023-12-09T10:53:29.630Z,98619.09
2023-12-09T10:55:56.652Z,98646.00
2023-12-09T10:58:24.795Z,98641.78
2023-12-09T11:00:52.264Z,98634.38
2023-12-09T11:03:19.307Z,98639.16
2023-12-09T11:05:49.958Z,98661.66
2023-12-09T11:08:17.088Z,98654.25
2023-12-09T11:10:45.551Z,98651.34
2023-12-09T11:13:13.132Z,98616.63
2023-12-09T11:15:39.842Z,98628.03
2023-12-09T11:18:11.344Z,98657.91
2023-12-09T11:20:39.929Z,98663.19
2023-12-09T11:23:09.490Z,98669.31
2023-12-09T11:25:39.486Z,98666.41
2023-12-09T11:28:06.196Z,98676.50
2023-12-09T11:30:38.349Z,98691.66
2023-12-09T11:33:06.014Z,98701.16
2023-12-09T11:35:36.941Z,98690.56
2023-12-09T11:38:05.900Z,98708.06
2023-12-09T11:40:33.741Z,98695.66
2023-12-09T11:43:02.145Z,98720.28
2023-12-09T11:45:28.969Z,98701.25
2023-12-09T11:47:58.049Z,98735.16
2023-12-09T11:50:25.382Z,98728.84
2023-12-09T11:52:52.319Z,98713.25
2023-12-09T11:55:21.991Z,98738.97
2023-12-09T11:57:48.752Z,98755.44
2023-12-09T12:00:15.648Z,98746.25
2023-12-09T12:02:42.596Z,98768.75
2023-12-09T12:05:10.481Z,98788.91
2023-12-09T12:07:37.372Z,98764.28
2023-12-09T12:10:08.903Z,98764.00
2023-12-09T12:12:39.100Z,98763.97
2023-12-09T12:15:06.227Z,98751.84
2023-12-09T12:17:40.562Z,98738.28
2023-12-09T12:20:09.410Z,98757.88
2023-12-09T12:22:35.971Z,98760.28
2023-12-09T12:25:02.628Z,98729.28
2023-12-09T12:27:34.166Z,98749.38
2023-12-09T12:30:00.943Z,98760.81
2023-12-09T12:32:28.031Z,98796.84
2023-12-09T12:34:55.070Z,98752.09
2023-12-09T12:37:21.853Z,98752.66
2023-12-09T12:39:48.774Z,98767.19
2023-12-09T12:42:15.556Z,98759.78
2023-12-09T12:44:42.644Z,98762.94
2023-12-09T12:47:09.373Z,98760.84
2023-12-09T12:49:36.022Z,98768.25
2023-12-09T12:52:02.756Z,98787.34
2023-12-09T12:54:29.491Z,98782.31
2023-12-09T12:56:56.165Z,98826.81
2023-12-09T12:59:22.821Z,98817.00
2023-12-09T13:01:49.465Z,98835.78
2023-12-09T13:04:17.583Z,98844.50
2023-12-09T13:06:44.540Z,98836.88
2023-12-09T13:09:11.610Z,98877.38
2023-12-09T13:11:38.284Z,98897.97
2023-12-09T13:14:06.130Z,98903.59
2023-12-09T13:16:32.852Z,98954.44
2023-12-09T13:18:59.658Z,98939.31
2023-12-09T13:21:26.392Z,98975.56
2023-12-09T13:23:53.339Z,99017.13
2023-12-09T13:26:20.112Z,99050.22
2023-12-09T13:28:46.858Z,99085.94
2023-12-09T13:31:13.560Z,99125.38
2023-12-09T13:33:40.335Z,99191.59
2023-12-09T13:36:07.807Z,99236.59
2023-12-09T13:38:34.568Z,99280.19
2023-12-09T13:41:01.174Z,99326.72
2023-12-09T13:43:27.833Z,99362.09
2023-12-09T13:45:54.542Z,99409.34
2023-12-09T13:48:21.312Z,99452.44
2023-12-09T13:50:48.538Z,99466.91
2023-12-09T13:53:15.410Z,99509.22
2023-12-09T13:55:42.041Z,99555.81
2023-12-09T13:58:08.647Z,99558.94
2023-12-09T14:00:35.596Z,99601.69
2023-12-09T14:03:02.795Z,99622.28
2023-12-09T14:05:29.646Z,99624.00
2023-12-09T14:07:56.436Z,99636.22
2023-12-09T14:10:23.218Z,99641.91
2023-12-09T14:12:50.148Z,99677.22
2023-12-09T14:15:17.110Z,99720.19
2023-12-09T14:17:44.022Z,99736.78
2023-12-09T14:20:11.745Z,99780.78
2023-12-09T14:22:38.932Z,99769.56
2023-12-09T14:25:06.097Z,99788.38
2023-12-09T14:27:32.859Z,99806.91
2023-12-09T14:29:59.633Z,99810.06
2023-12-09T14:32:26.575Z,99832.63
2023-12-09T14:34:53.599Z,99829.31
2023-12-09T14:37:20.465Z,99819.38
2023-12-09T14:39:47.230Z,99834.75
2023-12-09T14:42:13.897Z,99851.88
2023-12-09T14:44:40.598Z,99858.91
2023-12-09T14:47:07.293Z,99842.31
2023-12-09T14:49:34.050Z,99852.41
2023-12-09T14:52:00.809Z,99849.94
2023-12-09T14:54:27.504Z,99844.97
2023-12-09T14:56:54.297Z,99835.72
2023-12-09T14:59:21.166Z,99823.22
2023-12-09T15:01:47.891Z,99819.09
2023-12-09T15:04:14.571Z,99838.03
2023-12-09T15:06:41.395Z,99841.66
2023-12-09T15:09:08.148Z,99832.63
2023-12-09T15:11:34.814Z,99855.13
2023-12-09T15:14:01.470Z,99857.78
2023-12-09T15:16:28.542Z,99859.59
2023-12-09T15:18:55.604Z,99854.44
2023-12-09T15:21:22.306Z,99870.69
2023-12-09T15:23:49.265Z,99860.25
2023-12-09T15:26:15.960Z,99878.13
2023-12-09T15:28:42.601Z,99887.66
2023-12-09T15:31:09.293Z,99870.69
2023-12-09T15:33:36.449Z,99880.53
2023-12-09T15:36:03.833Z,99880.25
2023-12-09T15:38:30.797Z,99876.56
2023-12-09T15:40:57.457Z,99904.41
2023-12-09T15:43:24.126Z,99934.63
2023-12-09T15:45:52.124Z,99942.84
2023-12-09T15:48:20.020Z,99913.06
2023-12-09T15:50:46.871Z,99908.66
2023-12-09T15:53:13.483Z,99910.72
2023-12-09T15:55:40.152Z,99907.19
2023-12-09T15:58:06.972Z,99900.50
2023-12-09T16:00:33.784Z,99887.41
2023-12-09T16:03:00.966Z,99881.75
2023-12-09T16:05:27.689Z,99882.69
2023-12-09T16:07:54.405Z,99903.75
2023-12-09T16:10:21.095Z,99886.03
2023-12-09T16:12:47.882Z,99897.78
2023-12-09T16:15:15.181Z,99908.03
2023-12-09T16:17:42.174Z,99903.19
2023-12-09T16:20:09.721Z,99913.22
2023-12-09T16:22:36.466Z,99914.31
2023-12-09T16:25:03.175Z,99911.09
2023-12-09T16:27:29.919Z,99911.00
2023-12-09T16:29:56.631Z,99924.22
2023-12-09T16:32:23.275Z,99941.97
2023-12-09T16:34:50.149Z,99975.31
2023-12-09T16:37:16.815Z,100028.31
2023-12-09T16:39:43.531Z,100045.31
2023-12-09T16:42:10.227Z,100079.31
2023-12-09T16:44:37.005Z,100137.72
2023-12-09T16:47:03.950Z,100173.78
2023-12-09T16:49:30.807Z,100210.19
2023-12-09T16:51:57.863Z,100211.91
2023-12-09T16:54:24.635Z,100237.72
2023-12-09T16:56:51.325Z,100226.56
2023-12-09T16:59:18.257Z,100223.16
2023-12-09T17:01:44.974Z,100244.03
2023-12-09T17:04:11.770Z,100258.94
2023-12-09T17:06:38.531Z,100251.53
2023-12-09T17:09:05.410Z,100232.31
2023-12-09T17:11:32.036Z,100244.72
2023-12-09T17:13:58.708Z,100254.91
2023-12-09T17:16:25.432Z,100270.75
2023-12-09T17:18:52.199Z,100291.53
2023-12-09T17:21:18.924Z,100296.81
2023-12-09T17:23:45.653Z,100316.81
2023-12-09T17:26:12.383Z,100310.41
2023-12-09T17:28:39.056Z,100333.16
2023-12-09T17:31:05.733Z,100372.75
2023-12-09T17:33:32.687Z,100386.34
2023-12-09T17:35:59.460Z,100397.50
2023-12-09T17:38:26.173Z,100393.94
2023-12-09T17:40:52.788Z,100431.09
2023-12-09T17:43:19.385Z,100433.34
2023-12-09T17:45:46.091Z,100457.09
2023-12-09T17:48:12.871Z,100443.47
2023-12-09T17:50:39.585Z,100429.16
2023-12-09T17:53:06.298Z,100454.25
2023-12-09T17:55:32.992Z,100446.75
2023-12-09T17:57:59.619Z,100435.38
2023-12-09T18:00:26.373Z,100433.97
2023-12-09T18:02:53.060Z,100439.22
2023-12-09T18:05:19.733Z,100435.59
2023-12-09T18:07:46.413Z,100434.59
2023-12-09T18:10:15.043Z,100440.03
2023-12-09T18:12:43.022Z,100414.69
2023-12-09T18:15:09.952Z,100419.69
2023-12-09T18:17:36.850Z,100401.44
2023-12-09T18:20:04.103Z,100394.94
2023-12-09T18:22:30.982Z,100380.75
2023-12-09T18:24:57.755Z,100367.28
2023-12-09T18:27:24.462Z,100358.31
2023-12-09T18:29:51.113Z,100362.72
2023-12-09T18:32:17.766Z,100373.47
2023-12-09T18:34:44.786Z,100391.16
2023-12-09T18:37:14.878Z,100367.38
2023-12-09T18:39:41.489Z,100380.81
2023-12-09T18:42:08.218Z,100377.75
2023-12-09T18:44:34.941Z,100387.06
2023-12-09T18:47:01.631Z,100390.97
2023-12-09T18:49:28.362Z,100408.41
2023-12-09T18:51:55.208Z,100426.88
2023-12-09T18:54:21.831Z,100420.03
2023-12-09T18:56:48.527Z,100446.94
2023-12-09T18:59:17.602Z,100460.16
2023-12-09T19:01:44.715Z,100445.97
2023-12-09T19:04:11.763Z,100455.16
2023-12-09T19:06:45.879Z,100476.28
2023-12-09T19:09:20.586Z,100460.00
2023-12-09T19:11:47.515Z,100470.56
2023-12-09T19:14:14.451Z,100490.88
2023-12-09T19:16:41.428Z,100502.28
2023-12-09T19:19:08.279Z,100516.66
2023-12-09T19:21:35.053Z,100525.00
2023-12-09T19:24:01.663Z,100540.25
2023-12-09T19:26:28.391Z,100549.38
2023-12-09T19:28:55.145Z,100547.34
2023-12-09T19:31:21.786Z,100552.88
2023-12-09T19:33:48.442Z,100577.47
2023-12-09T19:36:15.227Z,100572.19
2023-12-09T19:38:41.866Z,100593.13
2023-12-09T19:41:08.465Z,100595.59
2023-12-09T19:43:35.146Z,100617.34
2023-12-09T19:46:02.207Z,100626.69
2023-12-09T19:48:28.968Z,100634.22
2023-12-09T19:50:55.827Z,100648.28
2023-12-09T19:53:22.521Z,100650.72
2023-12-09T19:55:49.173Z,100644.84
2023-12-09T19:58:15.846Z,100657.84
2023-12-09T20:00:45.847Z,100665.75
2023-12-09T20:03:12.708Z,100649.56
2023-12-09T20:05:39.375Z,100655.63
2023-12-09T20:08:06.096Z,100665.38
2023-12-09T20:10:32.818Z,100676.97
2023-12-09T20:12:59.465Z,100683.25
2023-12-09T20:15:26.123Z,100679.78
2023-12-09T20:17:52.838Z,100672.88
2023-12-09T20:20:19.550Z,100688.50
2023-12-09T20:22:46.161Z,100686.69
2023-12-09T20:25:12.843Z,100681.41
2023-12-09T20:27:39.521Z,100672.06
2023-12-09T20:30:06.801Z,100672.06
2023-12-09T20:32:33.587Z,100688.34
2023-12-09T20:35:00.482Z,100673.28
2023-12-09T20:37:27.096Z,100681.84
2023-12-09T20:39:53.741Z,100680.41
2023-12-09T20:42:20.404Z,100674.94
2023-12-09T20:44:47.071Z,100695.25
2023-12-09T20:47:13.721Z,100703.56
2023-12-09T20:49:40.437Z,100691.00
2023-12-09T20:52:07.153Z,100693.00
2023-12-09T20:54:33.789Z,100694.44
2023-12-09T20:57:01.107Z,100694.66
2023-12-09T20:59:27.945Z,100687.13
2023-12-09T21:01:55.154Z,100672.53
2023-12-09T21:04:22.335Z,100673.75
2023-12-09T21:06:49.222Z,100663.38
2023-12-09T21:09:16.195Z,100672.31
2023-12-09T21:11:43.711Z,100656.50
2023-12-09T21:14:12.116Z,100638.44
2023-12-09T21:16:38.723Z,100643.69
2023-12-09T21:19:05.471Z,100626.25
2023-12-09T21:21:32.248Z,100621.97
2023-12-09T21:23:58.912Z,100622.81
2023-12-09T21:26:25.599Z,100611.44
2023-12-09T21:28:52.247Z,100605.94
2023-12-09T21:31:18.985Z,100587.69
2023-12-09T21:33:46.161Z,100590.53
2023-12-09T21:36:17.033Z,100589.94
2023-12-09T21:38:44.688Z,100600.25
2023-12-09T21:41:22.467Z,100600.88
2023-12-09T21:43:50.167Z,100595.22
2023-12-09T21:46:20.715Z,100599.44
2023-12-09T21:48:47.792Z,100592.34
2023-12-09T21:51:14.546Z,100618.13
2023-12-09T21:53:41.198Z,100611.44
2023-12-09T21:56:08.313Z,100611.03
2023-12-09T21:58:34.946Z,100607.78
2023-12-09T22:01:01.665Z,100604.13
2023-12-09T22:03:28.436Z,100616.91
2023-12-09T22:05:55.154Z,100608.78
2023-12-09T22:08:21.756Z,100613.06
2023-12-09T22:10:48.429Z,100588.53
2023-12-09T22:13:15.101Z,100591.34
2023-12-09T22:15:41.871Z,100571.88
2023-12-09T22:18:08.698Z,100574.53
2023-12-09T22:20:35.392Z,100568.63
2023-12-09T22:23:02.010Z,100546.31
2023-12-09T22:25:28.670Z,100542.66
2023-12-09T22:27:55.404Z,100542.88
2023-12-09T22:30:22.080Z,100530.50
2023-12-09T22:32:48.940Z,100521.16
2023-12-09T22:35:15.665Z,100512.44
2023-12-09T22:37:42.379Z,100505.13
2023-12-09T22:40:09.555Z,100491.31
2023-12-09T22:42:37.196Z,100469.84
2023-12-09T22:45:05.134Z,100474.25
2023-12-09T22:47:32.295Z,100471.00
2023-12-09T22:49:59.099Z,100449.72
2023-12-09T22:52:26.136Z,100444.03
2023-12-09T22:54:52.936Z,100428.78
2023-12-09T22:57:20.004Z,100445.81
2023-12-09T22:59:46.738Z,100424.16
2023-12-09T23:02:13.410Z,100429.38
2023-12-09T23:04:40.072Z,100432.63
2023-12-09T23:07:06.911Z,100422.06
2023-12-09T23:09:33.611Z,100407.09
2023-12-09T23:12:00.263Z,100399.34
2023-12-09T23:14:27.025Z,100402.41
2023-12-09T23:16:53.771Z,100385.75
2023-12-09T23:19:20.526Z,100398.13
2023-12-09T23:21:47.330Z,100405.41
2023-12-09T23:24:14.073Z,100398.50
2023-12-09T23:26:40.806Z,100402.78
2023-12-09T23:29:08.536Z,100372.81
2023-12-09T23:31:41.044Z,100402.59
2023-12-09T23:34:08.748Z,100393.44
2023-12-09T23:36:35.583Z,100402.59
2023-12-09T23:39:02.313Z,100398.13
2023-12-09T23:41:28.925Z,100392.03
2023-12-09T23:43:55.546Z,100389.41
2023-12-09T23:46:22.265Z,100372.16
2023-12-09T23:48:49.193Z,100376.16
2023-12-09T23:51:16.590Z,100378.97
2023-12-09T23:53:43.319Z,100373.91
2023-12-09T23:56:10.201Z,100380.63
2023-12-09T23:58:36.817Z,100364.41
